createdAt,value
2024-01-24T00:00:53.398Z,1.27
2024-01-24T00:03:20.099Z,0.90
2024-01-24T00:05:54.165Z,1.00
2024-01-24T00:08:28.124Z,0.90
2024-01-24T00:11:03.315Z,0.75
2024-01-24T00:13:29.908Z,0.80
2024-01-24T00:16:01.486Z,0.70
2024-01-24T00:18:35.663Z,0.95
2024-01-24T00:23:34.728Z,0.95
2024-01-24T00:26:04.591Z,1.00
2024-01-24T00:28:32.687Z,1.08
2024-01-24T00:30:59.156Z,0.88
2024-01-24T00:33:27.004Z,1.88
2024-01-24T00:35:54.834Z,1.17
2024-01-24T00:38:21.434Z,0.68
2024-01-24T00:40:48.033Z,1.15
2024-01-24T00:43:14.823Z,0.90
2024-01-24T00:45:47.425Z,1.55
2024-01-24T00:48:13.966Z,1.27
2024-01-24T00:50:40.359Z,0.88
2024-01-24T00:53:07.494Z,1.27
2024-01-24T00:55:34.616Z,1.58
2024-01-24T00:58:01.534Z,1.25
2024-01-24T01:00:28.151Z,0.90
2024-01-24T01:02:54.525Z,1.27
2024-01-24T01:05:21.116Z,1.20
2024-01-24T01:07:47.722Z,1.95
2024-01-24T01:10:14.194Z,1.60
2024-01-24T01:12:40.624Z,1.08
2024-01-24T01:15:07.262Z,1.20
2024-01-24T01:17:33.723Z,1.17
2024-01-24T01:20:03.388Z,1.45
2024-01-24T01:22:37.494Z,1.77
2024-01-24T01:25:04.627Z,1.88
2024-01-24T01:27:33.918Z,1.45
2024-01-24T01:30:02.937Z,1.77
2024-01-24T01:32:36.643Z,1.92
2024-01-24T01:35:03.306Z,2.28
2024-01-24T01:37:35.815Z,1.73
2024-01-24T01:40:08.534Z,1.77
2024-01-24T01:42:35.131Z,1.98
2024-01-24T01:45:09.615Z,1.30
2024-01-24T01:47:40.233Z,1.73
2024-01-24T01:50:11.257Z,1.60
2024-01-24T01:52:41.864Z,1.58
2024-01-24T01:55:09.276Z,1.58
2024-01-24T01:57:43.603Z,1.52
2024-01-24T02:00:11.509Z,1.52
2024-01-24T02:02:38.176Z,1.52
2024-01-24T02:05:08.040Z,1.40
2024-01-24T02:07:37.374Z,1.02
2024-01-24T02:10:06.727Z,1.48
2024-01-24T02:12:37.883Z,1.48
2024-01-24T02:15:06.167Z,1.25
2024-01-24T02:17:35.086Z,1.10
2024-01-24T02:20:13.881Z,0.90
2024-01-24T02:22:40.530Z,0.82
2024-01-24T02:25:12.527Z,0.95
2024-01-24T02:27:44.011Z,1.15
2024-01-24T02:30:27.005Z,0.60
2024-01-24T02:32:53.480Z,0.65
2024-01-24T02:35:20.095Z,0.60
2024-01-24T02:37:46.546Z,0.50
2024-01-24T02:40:12.981Z,0.70
2024-01-24T02:42:39.559Z,0.90
2024-01-24T02:45:07.587Z,0.70
2024-01-24T02:47:36.032Z,1.10
2024-01-24T02:50:16.684Z,0.70
2024-01-24T02:52:43.225Z,1.55
2024-01-24T02:55:13.626Z,1.13
2024-01-24T02:57:41.354Z,1.92
2024-01-24T03:00:08.788Z,1.08
2024-01-24T03:02:37.618Z,1.35
2024-01-24T03:05:10.927Z,0.95
2024-01-24T03:07:43.538Z,0.10
2024-01-24T03:10:10.263Z,0.00
2024-01-24T03:12:39.484Z,0.10
2024-01-24T03:15:06.677Z,0.47
2024-01-24T03:17:34.183Z,0.32
2024-01-24T03:20:06.778Z,0.03
2024-01-24T03:22:33.137Z,0.00
2024-01-24T03:24:59.723Z,1.25
2024-01-24T03:27:26.106Z,0.00
2024-01-24T03:30:08.802Z,0.93
2024-01-24T03:32:35.239Z,0.10
2024-01-24T03:35:06.247Z,2.17
2024-01-24T03:37:32.625Z,2.35
2024-01-24T03:40:01.903Z,1.95
2024-01-24T03:42:44.122Z,1.30
2024-01-24T03:45:10.620Z,2.08
2024-01-24T03:47:41.401Z,1.35
2024-01-24T03:50:08.518Z,2.92
2024-01-24T03:53:01.037Z,2.05
2024-01-24T03:55:27.341Z,1.58
2024-01-24T03:57:57.727Z,2.35
2024-01-24T04:00:24.948Z,1.65
2024-01-24T04:02:51.697Z,1.88
2024-01-24T04:05:20.714Z,2.17
2024-01-24T04:07:47.129Z,3.25
2024-01-24T04:10:13.579Z,3.28
2024-01-24T04:12:45.375Z,1.67
2024-01-24T04:15:12.320Z,3.00
2024-01-24T04:17:40.938Z,3.25
2024-01-24T04:20:08.804Z,3.38
2024-01-24T04:22:38.308Z,2.00
2024-01-24T04:25:05.266Z,5.65
2024-01-24T04:27:31.794Z,3.67
2024-01-24T04:30:04.144Z,2.65
2024-01-24T04:32:33.716Z,2.63
2024-01-24T04:35:02.647Z,3.00
2024-01-24T04:37:31.915Z,3.17
2024-01-24T04:40:01.545Z,3.50
2024-01-24T04:42:30.651Z,3.85
2024-01-24T04:45:03.303Z,3.47
2024-01-24T04:47:31.258Z,2.45
2024-01-24T04:50:05.220Z,3.00
2024-01-24T04:52:31.966Z,3.28
2024-01-24T04:55:01.501Z,4.05
2024-01-24T04:57:28.233Z,2.90
2024-01-24T04:59:56.618Z,5.10
2024-01-24T05:02:26.178Z,3.20
2024-01-24T05:05:02.806Z,2.88
2024-01-24T05:07:29.168Z,3.47
2024-01-24T05:09:55.538Z,4.03
2024-01-24T05:12:26.439Z,6.50
2024-01-24T05:14:55.264Z,4.15
2024-01-24T05:17:21.861Z,4.28
2024-01-24T05:19:50.059Z,3.20
2024-01-24T05:22:31.890Z,4.05
2024-01-24T05:25:01.516Z,3.25
2024-01-24T05:27:35.275Z,2.97
2024-01-24T05:30:09.388Z,4.15
2024-01-24T05:32:43.087Z,3.35
2024-01-24T06:04:58.053Z,3.95
2024-01-24T06:21:20.455Z,6.97
2024-01-24T06:23:57.435Z,5.93
2024-01-24T06:46:06.765Z,3.85
2024-01-24T06:51:16.706Z,4.45
2024-01-24T06:53:43.212Z,3.53
2024-01-24T06:56:09.757Z,4.78
2024-01-24T06:58:39.100Z,4.90
2024-01-24T07:01:07.219Z,4.80
2024-01-24T07:03:34.262Z,4.63
2024-01-24T07:06:01.097Z,6.10
2024-01-24T07:08:28.287Z,3.20
2024-01-24T07:10:57.768Z,4.20
2024-01-24T07:13:24.410Z,4.32
2024-01-24T07:15:53.111Z,6.13
2024-01-24T07:18:19.652Z,4.78
2024-01-24T07:20:46.119Z,5.65
2024-01-24T07:23:16.306Z,6.05
2024-01-24T07:25:42.775Z,5.43
2024-01-24T07:28:09.639Z,5.20
2024-01-24T07:30:36.084Z,5.47
2024-01-24T07:33:04.874Z,3.85
2024-01-24T07:35:31.244Z,4.38
2024-01-24T08:05:36.293Z,5.72
2024-01-24T08:29:50.528Z,5.05
2024-01-24T08:32:24.037Z,6.13
2024-01-24T08:34:57.828Z,4.83
2024-01-24T08:37:24.292Z,7.50
2024-01-24T08:39:53.875Z,4.25
2024-01-24T08:42:23.937Z,6.70
2024-01-24T08:44:50.696Z,5.15
2024-01-24T08:47:17.374Z,6.40
2024-01-24T08:49:43.868Z,4.70
2024-01-24T08:52:13.444Z,7.15
2024-01-24T08:54:40.257Z,7.95
2024-01-24T08:57:27.586Z,6.50
2024-01-24T08:59:54.647Z,10.60
2024-01-24T09:02:26.641Z,4.90
2024-01-24T09:04:54.315Z,8.18
2024-01-24T09:07:21.404Z,7.18
2024-01-24T09:09:55.781Z,5.28
2024-01-24T09:14:54.000Z,6.10
2024-01-24T09:17:21.301Z,5.88
2024-01-24T09:19:48.335Z,8.07
2024-01-24T09:22:14.778Z,6.15
2024-01-24T09:24:41.258Z,6.40
2024-01-24T09:27:07.654Z,8.00
2024-01-24T09:29:34.232Z,7.43
2024-01-24T09:32:03.397Z,4.63
2024-01-24T09:34:33.769Z,5.80
2024-01-24T09:37:02.893Z,7.03
2024-01-24T09:39:30.062Z,6.60
2024-01-24T09:42:03.242Z,7.80
2024-01-24T09:44:31.600Z,6.73
2024-01-24T09:46:58.048Z,6.57
2024-01-24T09:49:25.009Z,6.75
2024-01-24T09:51:53.333Z,6.70
2024-01-24T09:54:23.436Z,7.03
2024-01-24T09:56:51.567Z,8.15
2024-01-24T09:59:20.389Z,8.52
2024-01-24T10:01:47.519Z,7.05
2024-01-24T10:04:22.015Z,6.88
2024-01-24T10:06:48.791Z,9.93
2024-01-24T10:09:21.993Z,8.60
2024-01-24T10:11:48.435Z,7.03
2024-01-24T10:14:25.965Z,7.57
2024-01-24T10:16:52.756Z,8.73
2024-01-24T10:19:22.910Z,8.88
2024-01-24T10:21:51.056Z,5.47
2024-01-24T10:24:20.253Z,5.38
2024-01-24T10:26:46.791Z,9.20
2024-01-24T10:29:13.434Z,6.38
2024-01-24T10:31:45.510Z,6.63
2024-01-24T10:34:12.385Z,7.63
2024-01-24T10:36:43.575Z,8.18
2024-01-24T10:39:12.369Z,8.77
2024-01-24T10:41:41.446Z,7.47
2024-01-24T10:44:11.164Z,9.10
2024-01-24T10:46:38.461Z,6.97
2024-01-24T10:49:10.995Z,7.32
2024-01-24T10:51:48.353Z,5.65
2024-01-24T10:54:26.168Z,6.03
2024-01-24T10:56:52.908Z,7.13
2024-01-24T10:59:42.855Z,8.73
2024-01-24T11:02:10.260Z,7.97
2024-01-24T11:04:40.178Z,6.43
2024-01-24T11:07:13.200Z,6.45
2024-01-24T11:10:10.599Z,6.47
2024-01-24T11:12:40.599Z,6.10
2024-01-24T11:15:13.000Z,7.68
2024-01-24T11:17:45.189Z,9.27
2024-01-24T11:20:15.308Z,9.60
2024-01-24T11:22:42.469Z,6.35
2024-01-24T11:25:12.957Z,7.53
2024-01-24T11:27:42.491Z,6.47
2024-01-24T11:30:15.465Z,6.68
2024-01-24T11:32:45.915Z,7.60
2024-01-24T11:35:28.249Z,8.68
2024-01-24T11:38:08.709Z,8.15
2024-01-24T11:40:43.820Z,8.73
2024-01-24T11:43:31.900Z,7.85
2024-01-24T11:46:05.050Z,8.80
2024-01-24T11:48:33.481Z,6.97
2024-01-24T11:51:04.060Z,5.65
2024-01-24T11:53:30.686Z,7.93
2024-01-24T11:56:03.212Z,8.45
2024-01-24T11:58:30.525Z,6.88
2024-01-24T12:00:57.960Z,7.88
2024-01-24T12:03:24.743Z,9.68
2024-01-24T12:05:54.457Z,7.15
2024-01-24T12:08:28.889Z,8.43
2024-01-24T12:10:55.319Z,6.10
2024-01-24T12:13:27.340Z,8.13
2024-01-24T12:15:56.020Z,9.10
2024-01-24T12:18:23.030Z,8.40
2024-01-24T12:20:55.565Z,10.90
2024-01-24T12:23:26.644Z,7.05
2024-01-24T12:25:53.409Z,9.00
2024-01-24T12:55:28.410Z,3.42
2024-01-24T12:57:55.044Z,0.17
2024-01-24T13:00:26.668Z,0.10
2024-01-24T13:02:54.159Z,0.10
2024-01-24T13:05:25.996Z,2.55
2024-01-24T13:10:46.555Z,0.20
2024-01-24T13:13:14.217Z,4.97
2024-01-24T13:15:41.660Z,0.32
2024-01-24T13:18:09.697Z,3.83
2024-01-24T13:20:39.066Z,1.05
2024-01-24T13:23:05.613Z,2.53
2024-01-24T13:25:32.304Z,1.95
2024-01-24T13:28:08.748Z,1.35
2024-01-24T13:30:36.335Z,1.45
2024-01-24T13:33:05.393Z,1.55
2024-01-24T13:35:33.323Z,0.10
2024-01-24T13:38:00.501Z,1.05
2024-01-24T13:40:30.732Z,0.10
2024-01-24T13:42:57.333Z,0.38
2024-01-24T13:45:50.915Z,2.42
2024-01-24T13:48:18.138Z,1.98
2024-01-24T13:50:44.614Z,2.10
2024-01-24T13:53:13.915Z,0.63
2024-01-24T13:55:41.163Z,2.30
2024-01-24T13:58:10.471Z,0.65
2024-01-24T14:03:20.628Z,1.55
2024-01-24T14:05:47.171Z,1.08
2024-01-24T14:08:13.793Z,8.38
2024-01-24T14:10:52.576Z,0.00
2024-01-24T14:13:42.131Z,1.15
2024-01-24T14:16:11.503Z,0.15
2024-01-24T14:18:41.234Z,1.67
2024-01-24T14:21:14.407Z,1.95
2024-01-24T14:24:02.032Z,1.20
2024-01-24T14:26:31.572Z,2.45
2024-01-24T14:29:01.137Z,0.10
2024-01-24T14:31:35.759Z,0.85
2024-01-24T14:34:03.435Z,0.77
2024-01-24T14:36:36.475Z,1.80
2024-01-24T14:39:05.340Z,3.40
2024-01-24T14:41:34.589Z,0.40
2024-01-24T14:44:01.102Z,0.10
2024-01-24T14:46:35.269Z,8.60
2024-01-24T14:49:01.784Z,7.55
2024-01-24T14:51:30.597Z,7.25
2024-01-24T14:53:57.754Z,9.55
2024-01-24T14:56:24.188Z,6.88
2024-01-24T14:58:54.038Z,6.80
2024-01-24T15:01:20.781Z,7.97
2024-01-24T15:03:50.965Z,7.70
2024-01-24T15:08:58.769Z,4.47
2024-01-24T15:11:25.133Z,8.18
2024-01-24T15:13:51.569Z,5.50
2024-01-24T15:16:19.251Z,6.28
2024-01-24T15:18:47.258Z,7.90
2024-01-24T15:21:14.926Z,6.85
2024-01-24T15:23:44.948Z,5.63
2024-01-24T15:26:14.905Z,7.68
2024-01-24T15:28:41.674Z,8.68
2024-01-24T15:31:08.678Z,5.57
2024-01-24T15:33:36.162Z,7.50
2024-01-24T15:36:05.900Z,8.15
2024-01-24T15:38:32.481Z,8.57
2024-01-24T15:43:39.568Z,5.30
2024-01-24T15:46:07.271Z,6.10
2024-01-24T15:48:37.465Z,6.00
2024-01-24T15:51:04.425Z,6.70
2024-01-24T15:53:34.098Z,5.28
2024-01-24T15:56:01.364Z,6.47
2024-01-24T15:58:39.588Z,4.53
2024-01-24T16:01:07.052Z,4.68
2024-01-24T16:03:39.817Z,6.72
2024-01-24T16:06:09.793Z,8.15
2024-01-24T16:08:39.010Z,9.43
2024-01-24T16:11:07.817Z,8.85
2024-01-24T16:13:34.483Z,6.13
2024-01-24T16:16:03.624Z,8.38
2024-01-24T16:18:39.730Z,8.38
2024-01-24T16:21:06.293Z,9.13
2024-01-24T16:23:33.089Z,8.30
2024-01-24T16:26:03.716Z,8.07
2024-01-24T16:28:30.280Z,9.02
2024-01-24T16:31:00.703Z,8.15
2024-01-24T16:33:30.400Z,7.38
2024-01-24T16:35:57.116Z,5.63
2024-01-24T16:38:23.654Z,9.88
2024-01-24T16:40:53.396Z,7.30
2024-01-24T16:43:20.296Z,6.75
2024-01-24T16:45:49.196Z,7.05
2024-01-24T16:48:17.227Z,6.72
2024-01-24T16:50:46.098Z,9.20
2024-01-24T16:53:12.579Z,9.70
2024-01-24T16:56:04.796Z,9.13
2024-01-24T16:58:43.717Z,9.88
2024-01-24T17:01:13.229Z,5.97
2024-01-24T17:03:40.168Z,6.00
2024-01-24T17:06:10.876Z,6.65
2024-01-24T17:08:45.751Z,8.70
2024-01-24T17:11:16.729Z,7.88
2024-01-24T17:13:43.120Z,5.93
2024-01-24T17:16:09.506Z,7.18
2024-01-24T17:18:48.818Z,7.45
2024-01-24T17:21:15.496Z,6.60
2024-01-24T17:23:49.587Z,8.10
2024-01-24T17:26:27.810Z,6.55
2024-01-24T17:28:56.578Z,6.05
2024-01-24T17:31:40.963Z,8.18
2024-01-24T17:34:11.521Z,7.38
2024-01-24T17:36:43.564Z,6.00
2024-01-24T17:39:18.046Z,5.95
2024-01-24T18:00:59.224Z,6.70
2024-01-24T18:14:56.997Z,5.45
2024-01-24T18:17:23.541Z,5.85
2024-01-24T18:30:37.647Z,5.00
2024-01-24T18:35:50.044Z,5.63
2024-01-24T18:38:19.842Z,5.50
2024-01-24T18:46:29.580Z,6.05
2024-01-24T18:49:01.235Z,4.18
2024-01-24T18:51:29.931Z,7.18
2024-01-24T18:56:49.306Z,5.50
2024-01-24T19:21:18.218Z,5.47
2024-01-24T19:23:50.962Z,4.78
2024-01-24T19:26:49.635Z,5.18
2024-01-24T19:40:15.952Z,4.32
2024-01-24T19:45:28.718Z,5.57
2024-01-24T19:50:36.288Z,6.95
2024-01-24T20:09:08.617Z,4.18
2024-01-24T20:11:35.062Z,5.38
2024-01-24T20:14:01.528Z,3.53
2024-01-24T20:40:56.696Z,5.63
2024-01-24T20:51:39.968Z,6.00
2024-01-24T20:54:08.205Z,4.10
2024-01-24T20:56:37.474Z,4.38
2024-01-24T21:40:59.560Z,6.13
2024-01-24T21:43:26.612Z,3.97
2024-01-24T21:45:53.480Z,6.45
2024-01-24T21:48:20.372Z,6.35
2024-01-24T21:50:47.066Z,4.97
2024-01-24T21:53:13.447Z,5.50
2024-01-24T21:55:39.982Z,4.78
2024-01-24T21:58:06.691Z,5.57
2024-01-24T22:00:36.424Z,5.97
2024-01-24T22:03:03.302Z,5.82
2024-01-24T22:05:29.745Z,4.95
2024-01-24T22:07:59.100Z,5.78
2024-01-24T22:10:28.082Z,6.50
2024-01-24T22:12:59.788Z,5.72
2024-01-24T22:15:27.025Z,6.80
2024-01-24T22:17:54.645Z,7.13
2024-01-24T22:20:24.307Z,5.47
2024-01-24T22:22:50.803Z,7.60
2024-01-24T22:25:17.435Z,6.35
2024-01-24T22:27:46.320Z,7.47
2024-01-24T22:30:13.231Z,6.57
2024-01-24T22:32:39.649Z,6.28
2024-01-24T22:35:06.706Z,5.57
2024-01-24T22:37:33.461Z,7.53
2024-01-24T22:39:59.982Z,4.25
2024-01-24T22:42:26.422Z,4.32
2024-01-24T22:44:52.757Z,7.38
2024-01-24T22:47:27.737Z,6.13
2024-01-24T22:49:56.557Z,7.47
2024-01-24T22:52:22.947Z,6.93
2024-01-24T22:54:51.569Z,6.65
2024-01-24T22:57:19.436Z,8.43
2024-01-24T22:59:48.563Z,4.95
2024-01-24T23:02:19.597Z,8.95
2024-01-24T23:04:49.195Z,6.55
2024-01-24T23:07:15.791Z,4.65
2024-01-24T23:09:42.498Z,7.43
2024-01-24T23:12:09.111Z,8.48
2024-01-24T23:14:35.594Z,5.47
2024-01-24T23:17:02.147Z,7.82
2024-01-24T23:19:28.624Z,6.05
2024-01-24T23:21:57.877Z,10.18
2024-01-24T23:24:24.402Z,7.68
2024-01-24T23:26:50.804Z,7.22
2024-01-24T23:29:17.167Z,8.43
2024-01-24T23:31:51.526Z,6.53
2024-01-24T23:36:53.210Z,6.40
2024-01-24T23:39:19.595Z,5.68
2024-01-24T23:41:47.929Z,7.45
2024-01-24T23:44:14.433Z,8.30
2024-01-24T23:46:41.245Z,5.90
2024-01-24T23:49:08.375Z,8.55
2024-01-24T23:51:36.486Z,6.53
2024-01-24T23:54:07.914Z,5.10
2024-01-24T23:56:34.321Z,5.57
2024-01-24T23:59:04.040Z,7.15
